sensor_id;sensor_type;location;lat;lon;timestamp;P1;durP1;ratioP1;P2;durP2;ratioP2
23802;SDS011;12082;51.786;6.018;2023-02-28T00:00:43;23.77;;;21.40;;
23802;SDS011;12082;51.786;6.018;2023-02-28T00:03:09;23.67;;;21.57;;
23802;SDS011;12082;51.786;6.018;2023-02-28T00:05:35;23.13;;;21.03;;
23802;SDS011;12082;51.786;6.018;2023-02-28T00:08:04;27.50;;;22.67;;
23802;SDS011;12082;51.786;6.018;2023-02-28T00:10:29;23.73;;;21.30;;
23802;SDS011;12082;51.786;6.018;2023-02-28T00:12:58;23.90;;;21.73;;
23802;SDS011;12082;51.786;6.018;2023-02-28T00:15:26;23.47;;;21.27;;
23802;SDS011;12082;51.786;6.018;2023-02-28T00:17:52;23.60;;;21.40;;
23802;SDS011;12082;51.786;6.018;2023-02-28T00:20:18;23.53;;;21.23;;
23802;SDS011;12082;51.786;6.018;2023-02-28T00:22:46;26.00;;;22.63;;
23802;SDS011;12082;51.786;6.018;2023-02-28T00:25:14;25.03;;;22.73;;
23802;SDS011;12082;51.786;6.018;2023-02-28T00:27:41;24.73;;;21.97;;
23802;SDS011;12082;51.786;6.018;2023-02-28T00:30:09;25.37;;;22.43;;
23802;SDS011;12082;51.786;6.018;2023-02-28T00:32:37;23.87;;;21.57;;
23802;SDS011;12082;51.786;6.018;2023-02-28T00:35:03;24.57;;;22.37;;
23802;SDS011;12082;51.786;6.018;2023-02-28T00:37:29;23.70;;;21.60;;
23802;SDS011;12082;51.786;6.018;2023-02-28T00:39:55;23.13;;;21.10;;
23802;SDS011;12082;51.786;6.018;2023-02-28T00:42:21;23.57;;;21.20;;
23802;SDS011;12082;51.786;6.018;2023-02-28T00:44:46;25.23;;;22.60;;
23802;SDS011;12082;51.786;6.018;2023-02-28T00:47:12;26.20;;;23.67;;
23802;SDS011;12082;51.786;6.018;2023-02-28T00:49:38;25.27;;;22.83;;
23802;SDS011;12082;51.786;6.018;2023-02-28T00:52:03;24.93;;;22.60;;
23802;SDS011;12082;51.786;6.018;2023-02-28T00:54:29;26.53;;;24.00;;
23802;SDS011;12082;51.786;6.018;2023-02-28T00:56:54;26.47;;;23.70;;
23802;SDS011;12082;51.786;6.018;2023-02-28T00:59:20;26.90;;;23.83;;
23802;SDS011;12082;51.786;6.018;2023-02-28T01:01:46;28.03;;;25.10;;
23802;SDS011;12082;51.786;6.018;2023-02-28T01:04:12;25.47;;;23.13;;
23802;SDS011;12082;51.786;6.018;2023-02-28T01:06:38;27.07;;;24.10;;
23802;SDS011;12082;51.786;6.018;2023-02-28T01:09:05;26.13;;;23.73;;
23802;SDS011;12082;51.786;6.018;2023-02-28T01:11:31;26.37;;;23.73;;
23802;SDS011;12082;51.786;6.018;2023-02-28T01:13:58;25.00;;;22.63;;
23802;SDS011;12082;51.786;6.018;2023-02-28T01:16:24;24.53;;;22.07;;
23802;SDS011;12082;51.786;6.018;2023-02-28T01:18:49;29.60;;;23.37;;
23802;SDS011;12082;51.786;6.018;2023-02-28T01:21:16;23.30;;;21.20;;
23802;SDS011;12082;51.786;6.018;2023-02-28T01:23:43;23.57;;;21.27;;
23802;SDS011;12082;51.786;6.018;2023-02-28T01:26:13;25.40;;;22.80;;
23802;SDS011;12082;51.786;6.018;2023-02-28T01:28:40;23.73;;;21.47;;
23802;SDS011;12082;51.786;6.018;2023-02-28T01:31:06;24.87;;;22.17;;
23802;SDS011;12082;51.786;6.018;2023-02-28T01:33:33;23.73;;;21.40;;
23802;SDS011;12082;51.786;6.018;2023-02-28T01:36:03;24.10;;;21.80;;
23802;SDS011;12082;51.786;6.018;2023-02-28T01:38:30;30.50;;;24.10;;
23802;SDS011;12082;51.786;6.018;2023-02-28T01:40:56;25.87;;;23.20;;
23802;SDS011;12082;51.786;6.018;2023-02-28T01:43:23;25.23;;;22.77;;
23802;SDS011;12082;51.786;6.018;2023-02-28T01:45:51;26.80;;;22.30;;
23802;SDS011;12082;51.786;6.018;2023-02-28T01:48:18;24.83;;;22.23;;
23802;SDS011;12082;51.786;6.018;2023-02-28T01:50:46;24.73;;;22.40;;
23802;SDS011;12082;51.786;6.018;2023-02-28T01:53:17;25.43;;;22.73;;
23802;SDS011;12082;51.786;6.018;2023-02-28T01:55:48;25.80;;;23.17;;
23802;SDS011;12082;51.786;6.018;2023-02-28T01:58:16;23.53;;;21.23;;
23802;SDS011;12082;51.786;6.018;2023-02-28T02:00:42;25.27;;;22.70;;
23802;SDS011;12082;51.786;6.018;2023-02-28T02:03:09;25.60;;;23.13;;
23802;SDS011;12082;51.786;6.018;2023-02-28T02:05:38;25.57;;;22.60;;
23802;SDS011;12082;51.786;6.018;2023-02-28T02:08:06;26.67;;;23.87;;
23802;SDS011;12082;51.786;6.018;2023-02-28T02:10:40;24.93;;;22.53;;
23802;SDS011;12082;51.786;6.018;2023-02-28T02:13:10;27.00;;;22.80;;
23802;SDS011;12082;51.786;6.018;2023-02-28T02:26:26;25.43;;;22.87;;
23802;SDS011;12082;51.786;6.018;2023-02-28T02:32:23;23.23;;;20.83;;
23802;SDS011;12082;51.786;6.018;2023-02-28T02:35:21;24.53;;;22.20;;
23802;SDS011;12082;51.786;6.018;2023-02-28T02:43:37;22.50;;;20.40;;
23802;SDS011;12082;51.786;6.018;2023-02-28T02:46:14;23.00;;;20.93;;
23802;SDS011;12082;51.786;6.018;2023-02-28T02:48:42;23.37;;;21.20;;
23802;SDS011;12082;51.786;6.018;2023-02-28T02:51:11;24.77;;;22.23;;
23802;SDS011;12082;51.786;6.018;2023-02-28T02:53:42;23.00;;;20.80;;
23802;SDS011;12082;51.786;6.018;2023-02-28T02:56:15;24.27;;;22.17;;
23802;SDS011;12082;51.786;6.018;2023-02-28T02:58:44;23.73;;;21.60;;
23802;SDS011;12082;51.786;6.018;2023-02-28T03:01:20;27.03;;;22.23;;
23802;SDS011;12082;51.786;6.018;2023-02-28T03:03:54;24.00;;;21.83;;
23802;SDS011;12082;51.786;6.018;2023-02-28T03:06:32;26.30;;;21.93;;
23802;SDS011;12082;51.786;6.018;2023-02-28T03:08:59;24.93;;;21.87;;
23802;SDS011;12082;51.786;6.018;2023-02-28T03:11:25;24.27;;;21.97;;
23802;SDS011;12082;51.786;6.018;2023-02-28T03:19:45;24.23;;;21.93;;
23802;SDS011;12082;51.786;6.018;2023-02-28T03:22:24;24.20;;;21.90;;
23802;SDS011;12082;51.786;6.018;2023-02-28T03:30:48;22.37;;;20.07;;
23802;SDS011;12082;51.786;6.018;2023-02-28T03:33:23;22.40;;;20.17;;
23802;SDS011;12082;51.786;6.018;2023-02-28T03:35:52;23.57;;;21.37;;
23802;SDS011;12082;51.786;6.018;2023-02-28T03:41:01;22.60;;;20.43;;
23802;SDS011;12082;51.786;6.018;2023-02-28T03:43:53;23.30;;;21.07;;
23802;SDS011;12082;51.786;6.018;2023-02-28T03:46:25;22.00;;;19.60;;
23802;SDS011;12082;51.786;6.018;2023-02-28T03:49:00;21.50;;;19.50;;
23802;SDS011;12082;51.786;6.018;2023-02-28T03:51:31;22.57;;;20.47;;
23802;SDS011;12082;51.786;6.018;2023-02-28T03:53:58;22.87;;;20.47;;
23802;SDS011;12082;51.786;6.018;2023-02-28T03:56:34;25.47;;;20.63;;
23802;SDS011;12082;51.786;6.018;2023-02-28T04:02:06;21.20;;;19.23;;
23802;SDS011;12082;51.786;6.018;2023-02-28T04:04:33;25.73;;;20.43;;
23802;SDS011;12082;51.786;6.018;2023-02-28T04:07:03;22.10;;;20.20;;
23802;SDS011;12082;51.786;6.018;2023-02-28T04:09:30;21.60;;;19.33;;
23802;SDS011;12082;51.786;6.018;2023-02-28T04:11:56;20.37;;;18.67;;
23802;SDS011;12082;51.786;6.018;2023-02-28T04:14:22;20.90;;;18.87;;
23802;SDS011;12082;51.786;6.018;2023-02-28T04:16:48;20.93;;;19.07;;
23802;SDS011;12082;51.786;6.018;2023-02-28T04:19:14;20.77;;;18.80;;
23802;SDS011;12082;51.786;6.018;2023-02-28T04:21:41;20.37;;;18.60;;
23802;SDS011;12082;51.786;6.018;2023-02-28T04:24:12;21.67;;;19.77;;
23802;SDS011;12082;51.786;6.018;2023-02-28T04:26:40;20.53;;;18.73;;
23802;SDS011;12082;51.786;6.018;2023-02-28T04:29:08;20.87;;;18.97;;
23802;SDS011;12082;51.786;6.018;2023-02-28T04:31:35;19.97;;;18.33;;
23802;SDS011;12082;51.786;6.018;2023-02-28T04:34:01;19.30;;;17.57;;
23802;SDS011;12082;51.786;6.018;2023-02-28T04:36:27;20.10;;;18.23;;
23802;SDS011;12082;51.786;6.018;2023-02-28T04:38:53;19.03;;;17.43;;
23802;SDS011;12082;51.786;6.018;2023-02-28T04:41:19;19.67;;;18.07;;
23802;SDS011;12082;51.786;6.018;2023-02-28T04:43:45;19.40;;;17.63;;
23802;SDS011;12082;51.786;6.018;2023-02-28T04:46:11;19.57;;;17.87;;
23802;SDS011;12082;51.786;6.018;2023-02-28T04:48:37;19.90;;;18.17;;
23802;SDS011;12082;51.786;6.018;2023-02-28T04:51:05;20.10;;;18.40;;
23802;SDS011;12082;51.786;6.018;2023-02-28T04:53:36;19.57;;;17.93;;
23802;SDS011;12082;51.786;6.018;2023-02-28T04:56:02;20.23;;;18.53;;
23802;SDS011;12082;51.786;6.018;2023-02-28T04:58:28;20.53;;;18.40;;
23802;SDS011;12082;51.786;6.018;2023-02-28T05:00:56;19.83;;;18.10;;
23802;SDS011;12082;51.786;6.018;2023-02-28T05:03:40;19.13;;;17.43;;
23802;SDS011;12082;51.786;6.018;2023-02-28T05:06:06;20.00;;;18.20;;
23802;SDS011;12082;51.786;6.018;2023-02-28T05:08:32;19.70;;;18.00;;
23802;SDS011;12082;51.786;6.018;2023-02-28T05:10:59;20.20;;;18.13;;
23802;SDS011;12082;51.786;6.018;2023-02-28T05:13:25;18.47;;;16.87;;
23802;SDS011;12082;51.786;6.018;2023-02-28T05:15:52;19.27;;;17.80;;
23802;SDS011;12082;51.786;6.018;2023-02-28T05:18:17;18.60;;;17.10;;
23802;SDS011;12082;51.786;6.018;2023-02-28T05:20:43;19.93;;;18.23;;
23802;SDS011;12082;51.786;6.018;2023-02-28T05:23:10;18.57;;;17.13;;
23802;SDS011;12082;51.786;6.018;2023-02-28T05:25:37;18.27;;;16.87;;
23802;SDS011;12082;51.786;6.018;2023-02-28T05:28:03;18.77;;;17.17;;
23802;SDS011;12082;51.786;6.018;2023-02-28T05:30:29;19.17;;;17.67;;
23802;SDS011;12082;51.786;6.018;2023-02-28T05:32:56;18.90;;;17.03;;
23802;SDS011;12082;51.786;6.018;2023-02-28T05:35:22;19.63;;;18.10;;
23802;SDS011;12082;51.786;6.018;2023-02-28T05:37:48;20.30;;;18.43;;
23802;SDS011;12082;51.786;6.018;2023-02-28T05:40:14;18.30;;;16.87;;
23802;SDS011;12082;51.786;6.018;2023-02-28T05:42:40;19.20;;;17.40;;
23802;SDS011;12082;51.786;6.018;2023-02-28T05:45:06;20.07;;;18.43;;
23802;SDS011;12082;51.786;6.018;2023-02-28T05:47:33;19.63;;;18.23;;
23802;SDS011;12082;51.786;6.018;2023-02-28T05:49:59;19.87;;;18.17;;
23802;SDS011;12082;51.786;6.018;2023-02-28T05:52:25;19.90;;;18.10;;
23802;SDS011;12082;51.786;6.018;2023-02-28T05:54:50;19.30;;;17.80;;
23802;SDS011;12082;51.786;6.018;2023-02-28T05:57:16;18.37;;;17.00;;
23802;SDS011;12082;51.786;6.018;2023-02-28T05:59:42;19.00;;;17.50;;
23802;SDS011;12082;51.786;6.018;2023-02-28T06:02:10;18.83;;;17.27;;
23802;SDS011;12082;51.786;6.018;2023-02-28T06:04:38;19.17;;;17.67;;
23802;SDS011;12082;51.786;6.018;2023-02-28T06:07:05;19.37;;;17.87;;
23802;SDS011;12082;51.786;6.018;2023-02-28T06:09:31;19.50;;;17.53;;
23802;SDS011;12082;51.786;6.018;2023-02-28T06:11:58;19.30;;;17.63;;
23802;SDS011;12082;51.786;6.018;2023-02-28T06:14:24;19.97;;;18.00;;
23802;SDS011;12082;51.786;6.018;2023-02-28T06:16:50;19.47;;;17.80;;
23802;SDS011;12082;51.786;6.018;2023-02-28T06:19:15;20.80;;;17.63;;
23802;SDS011;12082;51.786;6.018;2023-02-28T06:21:42;19.70;;;18.00;;
23802;SDS011;12082;51.786;6.018;2023-02-28T06:24:08;19.17;;;17.60;;
23802;SDS011;12082;51.786;6.018;2023-02-28T06:26:34;19.80;;;17.80;;
23802;SDS011;12082;51.786;6.018;2023-02-28T06:28:59;19.27;;;17.57;;
23802;SDS011;12082;51.786;6.018;2023-02-28T06:31:25;18.83;;;17.17;;
23802;SDS011;12082;51.786;6.018;2023-02-28T06:33:53;18.87;;;17.27;;
23802;SDS011;12082;51.786;6.018;2023-02-28T06:36:19;19.03;;;17.40;;
23802;SDS011;12082;51.786;6.018;2023-02-28T06:38:45;18.43;;;17.03;;
23802;SDS011;12082;51.786;6.018;2023-02-28T06:41:16;18.87;;;17.20;;
23802;SDS011;12082;51.786;6.018;2023-02-28T06:43:41;18.20;;;16.70;;
23802;SDS011;12082;51.786;6.018;2023-02-28T06:46:08;19.33;;;17.83;;
23802;SDS011;12082;51.786;6.018;2023-02-28T06:48:36;18.87;;;17.47;;
23802;SDS011;12082;51.786;6.018;2023-02-28T06:51:03;21.50;;;19.20;;
23802;SDS011;12082;51.786;6.018;2023-02-28T06:53:30;18.47;;;17.07;;
23802;SDS011;12082;51.786;6.018;2023-02-28T06:55:56;19.27;;;17.70;;
23802;SDS011;12082;51.786;6.018;2023-02-28T06:58:21;20.47;;;18.77;;
23802;SDS011;12082;51.786;6.018;2023-02-28T07:00:49;18.87;;;17.27;;
23802;SDS011;12082;51.786;6.018;2023-02-28T07:03:16;20.37;;;18.87;;
23802;SDS011;12082;51.786;6.018;2023-02-28T07:05:43;19.53;;;17.83;;
23802;SDS011;12082;51.786;6.018;2023-02-28T07:08:08;20.03;;;18.50;;
23802;SDS011;12082;51.786;6.018;2023-02-28T07:10:36;19.03;;;17.60;;
23802;SDS011;12082;51.786;6.018;2023-02-28T07:13:03;19.93;;;18.07;;
23802;SDS011;12082;51.786;6.018;2023-02-28T07:15:29;20.50;;;18.73;;
23802;SDS011;12082;51.786;6.018;2023-02-28T07:17:55;20.43;;;18.63;;
23802;SDS011;12082;51.786;6.018;2023-02-28T07:20:21;19.17;;;17.67;;
23802;SDS011;12082;51.786;6.018;2023-02-28T07:22:48;20.53;;;18.83;;
23802;SDS011;12082;51.786;6.018;2023-02-28T07:25:20;18.93;;;17.37;;
23802;SDS011;12082;51.786;6.018;2023-02-28T07:27:46;20.97;;;19.17;;
23802;SDS011;12082;51.786;6.018;2023-02-28T07:30:12;19.63;;;18.13;;
23802;SDS011;12082;51.786;6.018;2023-02-28T07:32:38;20.30;;;18.50;;
23802;SDS011;12082;51.786;6.018;2023-02-28T07:35:04;21.07;;;19.03;;
23802;SDS011;12082;51.786;6.018;2023-02-28T07:37:30;19.27;;;17.57;;
23802;SDS011;12082;51.786;6.018;2023-02-28T07:39:56;19.23;;;17.53;;
23802;SDS011;12082;51.786;6.018;2023-02-28T07:42:22;19.47;;;17.73;;
23802;SDS011;12082;51.786;6.018;2023-02-28T07:44:48;18.10;;;16.67;;
23802;SDS011;12082;51.786;6.018;2023-02-28T07:47:13;17.47;;;15.83;;
23802;SDS011;12082;51.786;6.018;2023-02-28T07:49:39;18.73;;;16.43;;
23802;SDS011;12082;51.786;6.018;2023-02-28T07:52:05;16.23;;;14.93;;
23802;SDS011;12082;51.786;6.018;2023-02-28T07:54:32;15.80;;;14.70;;
23802;SDS011;12082;51.786;6.018;2023-02-28T07:56:58;15.73;;;14.43;;
23802;SDS011;12082;51.786;6.018;2023-02-28T07:59:24;14.07;;;13.07;;
23802;SDS011;12082;51.786;6.018;2023-02-28T08:01:50;15.17;;;14.07;;
23802;SDS011;12082;51.786;6.018;2023-02-28T08:04:16;14.30;;;13.40;;
23802;SDS011;12082;51.786;6.018;2023-02-28T08:06:42;14.53;;;13.53;;
23802;SDS011;12082;51.786;6.018;2023-02-28T08:09:08;13.73;;;12.93;;
23802;SDS011;12082;51.786;6.018;2023-02-28T08:11:34;13.90;;;12.90;;
23802;SDS011;12082;51.786;6.018;2023-02-28T08:13:59;13.47;;;12.37;;
23802;SDS011;12082;51.786;6.018;2023-02-28T08:16:25;14.23;;;13.23;;
23802;SDS011;12082;51.786;6.018;2023-02-28T08:18:51;12.80;;;12.00;;
23802;SDS011;12082;51.786;6.018;2023-02-28T08:21:17;13.27;;;12.43;;
23802;SDS011;12082;51.786;6.018;2023-02-28T08:23:43;13.30;;;12.40;;
23802;SDS011;12082;51.786;6.018;2023-02-28T08:26:11;13.07;;;11.77;;
23802;SDS011;12082;51.786;6.018;2023-02-28T08:28:36;12.37;;;11.47;;
23802;SDS011;12082;51.786;6.018;2023-02-28T08:31:06;12.60;;;11.80;;
23802;SDS011;12082;51.786;6.018;2023-02-28T08:33:32;12.00;;;11.30;;
23802;SDS011;12082;51.786;6.018;2023-02-28T08:35:58;12.07;;;11.27;;
23802;SDS011;12082;51.786;6.018;2023-02-28T08:38:27;12.60;;;11.60;;
23802;SDS011;12082;51.786;6.018;2023-02-28T08:41:05;11.27;;;10.57;;
23802;SDS011;12082;51.786;6.018;2023-02-28T08:43:32;10.60;;;10.00;;
23802;SDS011;12082;51.786;6.018;2023-02-28T08:45:59;11.40;;;10.60;;
23802;SDS011;12082;51.786;6.018;2023-02-28T08:48:24;11.33;;;10.70;;
23802;SDS011;12082;51.786;6.018;2023-02-28T08:50:55;11.70;;;10.90;;
23802;SDS011;12082;51.786;6.018;2023-02-28T08:53:21;12.33;;;11.57;;
23802;SDS011;12082;51.786;6.018;2023-02-28T08:55:47;12.60;;;11.90;;
23802;SDS011;12082;51.786;6.018;2023-02-28T08:58:19;13.43;;;12.70;;
23802;SDS011;12082;51.786;6.018;2023-02-28T09:00:45;13.37;;;12.50;;
23802;SDS011;12082;51.786;6.018;2023-02-28T09:03:10;13.27;;;12.43;;
23802;SDS011;12082;51.786;6.018;2023-02-28T09:05:36;13.20;;;12.40;;
23802;SDS011;12082;51.786;6.018;2023-02-28T09:08:01;12.63;;;11.90;;
23802;SDS011;12082;51.786;6.018;2023-02-28T09:10:27;13.83;;;13.00;;
23802;SDS011;12082;51.786;6.018;2023-02-28T09:12:52;13.63;;;12.73;;
23802;SDS011;12082;51.786;6.018;2023-02-28T09:15:18;13.57;;;12.77;;
23802;SDS011;12082;51.786;6.018;2023-02-28T09:17:44;13.37;;;12.57;;
23802;SDS011;12082;51.786;6.018;2023-02-28T09:20:09;13.47;;;12.67;;
23802;SDS011;12082;51.786;6.018;2023-02-28T09:22:35;12.93;;;12.10;;
23802;SDS011;12082;51.786;6.018;2023-02-28T09:25:01;13.23;;;12.53;;
23802;SDS011;12082;51.786;6.018;2023-02-28T09:27:26;13.20;;;12.50;;
23802;SDS011;12082;51.786;6.018;2023-02-28T09:29:52;14.03;;;13.00;;
23802;SDS011;12082;51.786;6.018;2023-02-28T09:32:17;14.00;;;13.13;;
23802;SDS011;12082;51.786;6.018;2023-02-28T09:34:43;13.47;;;12.67;;
23802;SDS011;12082;51.786;6.018;2023-02-28T09:37:08;14.57;;;13.67;;
23802;SDS011;12082;51.786;6.018;2023-02-28T09:39:34;14.67;;;13.67;;
23802;SDS011;12082;51.786;6.018;2023-02-28T09:42:00;13.60;;;12.80;;
23802;SDS011;12082;51.786;6.018;2023-02-28T09:44:30;13.70;;;12.73;;
23802;SDS011;12082;51.786;6.018;2023-02-28T09:49:56;14.03;;;13.23;;
23802;SDS011;12082;51.786;6.018;2023-02-28T09:52:28;13.57;;;12.77;;
23802;SDS011;12082;51.786;6.018;2023-02-28T09:54:55;13.47;;;12.77;;
23802;SDS011;12082;51.786;6.018;2023-02-28T10:08:32;13.10;;;12.40;;
23802;SDS011;12082;51.786;6.018;2023-02-28T10:11:11;13.13;;;12.53;;
23802;SDS011;12082;51.786;6.018;2023-02-28T10:19:05;14.20;;;13.50;;
23802;SDS011;12082;51.786;6.018;2023-02-28T10:21:45;12.90;;;12.13;;
23802;SDS011;12082;51.786;6.018;2023-02-28T10:24:19;13.37;;;12.77;;
23802;SDS011;12082;51.786;6.018;2023-02-28T10:26:51;12.77;;;12.17;;
23802;SDS011;12082;51.786;6.018;2023-02-28T10:29:20;13.00;;;12.30;;
23802;SDS011;12082;51.786;6.018;2023-02-28T10:31:46;13.33;;;12.60;;
23802;SDS011;12082;51.786;6.018;2023-02-28T10:34:12;13.47;;;12.63;;
23802;SDS011;12082;51.786;6.018;2023-02-28T10:36:38;14.37;;;13.57;;
23802;SDS011;12082;51.786;6.018;2023-02-28T10:41:50;13.30;;;12.60;;
23802;SDS011;12082;51.786;6.018;2023-02-28T10:44:20;13.53;;;12.80;;
23802;SDS011;12082;51.786;6.018;2023-02-28T10:46:47;13.37;;;12.73;;
23802;SDS011;12082;51.786;6.018;2023-02-28T10:49:17;13.60;;;12.90;;
23802;SDS011;12082;51.786;6.018;2023-02-28T10:51:44;13.20;;;12.50;;
23802;SDS011;12082;51.786;6.018;2023-02-28T10:54:18;12.90;;;12.07;;
23802;SDS011;12082;51.786;6.018;2023-02-28T10:56:45;13.00;;;12.20;;
23802;SDS011;12082;51.786;6.018;2023-02-28T10:59:24;12.80;;;12.00;;
23802;SDS011;12082;51.786;6.018;2023-02-28T11:01:52;13.00;;;12.10;;
23802;SDS011;12082;51.786;6.018;2023-02-28T11:04:19;13.00;;;12.03;;
23802;SDS011;12082;51.786;6.018;2023-02-28T11:06:51;12.43;;;11.70;;
23802;SDS011;12082;51.786;6.018;2023-02-28T11:12:05;13.17;;;12.30;;
23802;SDS011;12082;51.786;6.018;2023-02-28T11:14:33;12.60;;;11.90;;
23802;SDS011;12082;51.786;6.018;2023-02-28T11:17:24;13.37;;;12.57;;
23802;SDS011;12082;51.786;6.018;2023-02-28T11:20:04;12.53;;;11.83;;
23802;SDS011;12082;51.786;6.018;2023-02-28T11:22:37;12.03;;;11.33;;
23802;SDS011;12082;51.786;6.018;2023-02-28T11:25:20;12.73;;;12.13;;
23802;SDS011;12082;51.786;6.018;2023-02-28T11:27:49;15.13;;;14.33;;
23802;SDS011;12082;51.786;6.018;2023-02-28T11:32:50;12.50;;;11.80;;
23802;SDS011;12082;51.786;6.018;2023-02-28T11:35:29;12.53;;;11.83;;
23802;SDS011;12082;51.786;6.018;2023-02-28T11:37:59;13.33;;;12.63;;
23802;SDS011;12082;51.786;6.018;2023-02-28T11:40:39;15.53;;;14.47;;
23802;SDS011;12082;51.786;6.018;2023-02-28T11:46:06;12.70;;;12.10;;
23802;SDS011;12082;51.786;6.018;2023-02-28T11:51:47;12.83;;;12.13;;
23802;SDS011;12082;51.786;6.018;2023-02-28T12:02:43;13.37;;;12.50;;
23802;SDS011;12082;51.786;6.018;2023-02-28T12:05:36;13.63;;;12.63;;
23802;SDS011;12082;51.786;6.018;2023-02-28T12:11:14;13.23;;;12.47;;
23802;SDS011;12082;51.786;6.018;2023-02-28T12:28:47;12.60;;;11.90;;
23802;SDS011;12082;51.786;6.018;2023-02-28T12:34:42;12.43;;;11.83;;
23802;SDS011;12082;51.786;6.018;2023-02-28T12:38:14;12.97;;;12.27;;
23802;SDS011;12082;51.786;6.018;2023-02-28T12:40:21;12.00;;;11.20;;
23802;SDS011;12082;51.786;6.018;2023-02-28T12:42:52;12.83;;;12.23;;
23802;SDS011;12082;51.786;6.018;2023-02-28T12:45:23;12.47;;;11.67;;
23802;SDS011;12082;51.786;6.018;2023-02-28T12:47:54;12.13;;;11.43;;
23802;SDS011;12082;51.786;6.018;2023-02-28T12:50:23;12.27;;;11.53;;
23802;SDS011;12082;51.786;6.018;2023-02-28T13:09:10;12.93;;;12.03;;
23802;SDS011;12082;51.786;6.018;2023-02-28T13:14:23;13.00;;;12.20;;
23802;SDS011;12082;51.786;6.018;2023-02-28T13:17:02;12.77;;;11.97;;
23802;SDS011;12082;51.786;6.018;2023-02-28T13:19:32;12.70;;;12.00;;
23802;SDS011;12082;51.786;6.018;2023-02-28T13:22:00;13.47;;;12.63;;
23802;SDS011;12082;51.786;6.018;2023-02-28T13:24:41;12.73;;;12.03;;
23802;SDS011;12082;51.786;6.018;2023-02-28T13:29:35;13.53;;;12.60;;
23802;SDS011;12082;51.786;6.018;2023-02-28T13:34:31;13.37;;;12.53;;
23802;SDS011;12082;51.786;6.018;2023-02-28T13:47:30;12.73;;;12.00;;
23802;SDS011;12082;51.786;6.018;2023-02-28T13:52:59;12.57;;;11.83;;
23802;SDS011;12082;51.786;6.018;2023-02-28T14:06:57;12.60;;;11.70;;
23802;SDS011;12082;51.786;6.018;2023-02-28T14:09:25;11.17;;;10.53;;
23802;SDS011;12082;51.786;6.018;2023-02-28T14:11:53;11.93;;;11.00;;
23802;SDS011;12082;51.786;6.018;2023-02-28T14:17:04;12.33;;;11.63;;
23802;SDS011;12082;51.786;6.018;2023-02-28T14:19:32;12.30;;;11.50;;
23802;SDS011;12082;51.786;6.018;2023-02-28T14:22:12;12.20;;;11.40;;
23802;SDS011;12082;51.786;6.018;2023-02-28T14:25:04;12.00;;;11.30;;
23802;SDS011;12082;51.786;6.018;2023-02-28T14:33:00;12.13;;;11.43;;
23802;SDS011;12082;51.786;6.018;2023-02-28T14:35:55;11.07;;;10.37;;
23802;SDS011;12082;51.786;6.018;2023-02-28T14:38:40;11.03;;;10.37;;
23802;SDS011;12082;51.786;6.018;2023-02-28T14:41:12;11.23;;;10.63;;
23802;SDS011;12082;51.786;6.018;2023-02-28T14:43:49;10.60;;;10.00;;
23802;SDS011;12082;51.786;6.018;2023-02-28T14:46:28;11.10;;;10.50;;
23802;SDS011;12082;51.786;6.018;2023-02-28T14:49:03;11.00;;;10.40;;
23802;SDS011;12082;51.786;6.018;2023-02-28T14:51:32;11.17;;;10.50;;
23802;SDS011;12082;51.786;6.018;2023-02-28T14:53:59;12.07;;;11.23;;
23802;SDS011;12082;51.786;6.018;2023-02-28T14:56:32;11.37;;;10.77;;
23802;SDS011;12082;51.786;6.018;2023-02-28T14:59:01;11.73;;;11.13;;
23802;SDS011;12082;51.786;6.018;2023-02-28T15:01:28;11.83;;;11.17;;
23802;SDS011;12082;51.786;6.018;2023-02-28T15:04:04;11.27;;;10.67;;
23802;SDS011;12082;51.786;6.018;2023-02-28T15:06:31;11.13;;;10.53;;
23802;SDS011;12082;51.786;6.018;2023-02-28T15:09:07;11.23;;;10.40;;
23802;SDS011;12082;51.786;6.018;2023-02-28T15:11:40;12.17;;;11.30;;
23802;SDS011;12082;51.786;6.018;2023-02-28T15:14:06;11.27;;;10.67;;
23802;SDS011;12082;51.786;6.018;2023-02-28T15:16:39;11.00;;;10.50;;
23802;SDS011;12082;51.786;6.018;2023-02-28T15:19:13;11.40;;;10.70;;
23802;SDS011;12082;51.786;6.018;2023-02-28T15:21:46;11.53;;;10.73;;
23802;SDS011;12082;51.786;6.018;2023-02-28T15:26:49;11.33;;;10.73;;
23802;SDS011;12082;51.786;6.018;2023-02-28T15:29:20;11.80;;;11.10;;
23802;SDS011;12082;51.786;6.018;2023-02-28T15:32:16;11.70;;;11.10;;
23802;SDS011;12082;51.786;6.018;2023-02-28T15:34:45;11.50;;;10.90;;
23802;SDS011;12082;51.786;6.018;2023-02-28T15:37:25;11.40;;;10.60;;
23802;SDS011;12082;51.786;6.018;2023-02-28T15:39:52;11.93;;;11.27;;
23802;SDS011;12082;51.786;6.018;2023-02-28T15:42:20;11.90;;;11.20;;
23802;SDS011;12082;51.786;6.018;2023-02-28T15:44:48;11.97;;;11.27;;
23802;SDS011;12082;51.786;6.018;2023-02-28T15:50:19;11.97;;;11.20;;
23802;SDS011;12082;51.786;6.018;2023-02-28T15:52:39;12.13;;;11.53;;
23802;SDS011;12082;51.786;6.018;2023-02-28T15:55:28;12.40;;;11.70;;
23802;SDS011;12082;51.786;6.018;2023-02-28T15:57:54;12.70;;;12.00;;
23802;SDS011;12082;51.786;6.018;2023-02-28T16:00:24;12.87;;;12.07;;
23802;SDS011;12082;51.786;6.018;2023-02-28T16:02:50;13.00;;;12.20;;
23802;SDS011;12082;51.786;6.018;2023-02-28T16:05:18;13.27;;;12.40;;
23802;SDS011;12082;51.786;6.018;2023-02-28T16:07:59;12.73;;;12.03;;
23802;SDS011;12082;51.786;6.018;2023-02-28T16:10:36;13.40;;;12.60;;
23802;SDS011;12082;51.786;6.018;2023-02-28T16:13:02;13.30;;;12.60;;
23802;SDS011;12082;51.786;6.018;2023-02-28T16:15:28;14.00;;;13.23;;
23802;SDS011;12082;51.786;6.018;2023-02-28T16:17:56;13.73;;;12.83;;
23802;SDS011;12082;51.786;6.018;2023-02-28T16:20:27;13.80;;;13.10;;
23802;SDS011;12082;51.786;6.018;2023-02-28T16:22:54;13.73;;;13.00;;
23802;SDS011;12082;51.786;6.018;2023-02-28T16:25:34;13.67;;;12.87;;
23802;SDS011;12082;51.786;6.018;2023-02-28T16:28:05;14.03;;;13.23;;
23802;SDS011;12082;51.786;6.018;2023-02-28T16:30:44;13.90;;;13.10;;
23802;SDS011;12082;51.786;6.018;2023-02-28T16:33:10;14.33;;;13.43;;
23802;SDS011;12082;51.786;6.018;2023-02-28T16:35:35;15.00;;;13.90;;
23802;SDS011;12082;51.786;6.018;2023-02-28T16:38:01;28.63;;;14.77;;
23802;SDS011;12082;51.786;6.018;2023-02-28T16:40:26;14.77;;;13.97;;
23802;SDS011;12082;51.786;6.018;2023-02-28T16:42:57;15.00;;;14.10;;
23802;SDS011;12082;51.786;6.018;2023-02-28T16:45:25;14.90;;;13.90;;
23802;SDS011;12082;51.786;6.018;2023-02-28T16:47:52;14.07;;;13.37;;
23802;SDS011;12082;51.786;6.018;2023-02-28T16:50:19;14.90;;;14.10;;
23802;SDS011;12082;51.786;6.018;2023-02-28T16:52:47;14.53;;;13.73;;
23802;SDS011;12082;51.786;6.018;2023-02-28T16:55:14;14.70;;;13.60;;
23802;SDS011;12082;51.786;6.018;2023-02-28T16:57:40;14.50;;;13.60;;
23802;SDS011;12082;51.786;6.018;2023-02-28T17:00:08;14.00;;;13.30;;
23802;SDS011;12082;51.786;6.018;2023-02-28T17:02:36;14.60;;;13.70;;
23802;SDS011;12082;51.786;6.018;2023-02-28T17:05:01;14.90;;;14.10;;
23802;SDS011;12082;51.786;6.018;2023-02-28T17:07:28;14.60;;;13.80;;
23802;SDS011;12082;51.786;6.018;2023-02-28T17:09:54;15.47;;;14.57;;
23802;SDS011;12082;51.786;6.018;2023-02-28T17:12:19;15.23;;;14.20;;
23802;SDS011;12082;51.786;6.018;2023-02-28T17:14:45;14.60;;;13.80;;